MP02 weather

Finca 45 Airport
Dos Caños, Bocas del Toro Province, Panama

Public forecast

Using degrees Celsius for public forecast. Weather courtesy of forecast.io.

Closest aviation weather report (METAR) to Finca 45 Airport

Report is more than 6 hours old.

Closest report is Cap Manuel Niño International Airport, 13.9 nm (25.8 km) ESE. Retrieved 2019/08/28 01:00 UTC (2 months ago):

MPCH 280100Z 00000KT 9999 FEW030 SCT080 Q1012 RMK HZ S-SW

Closest aviation forecast (TAF) to Finca 45 Airport

Closest forecast is Limon International Airport, 30.2 nm (55.9 km) NW. Retrieved 2019-10-24 00:28 UTC (4 hours ago):

TAF MRLM 232300Z 2400/2424 25004KT 9999 FEW025 SCT200 TX31/2419Z TN23/2412Z BECMG 2415/2417 07005KT